createdAt,value
2019-01-16T00:00:13.963Z,96.12
2019-01-16T00:01:13.949Z,95.94
2019-01-16T00:02:13.944Z,95.84
2019-01-16T00:03:13.928Z,95.84
2019-01-16T00:04:13.917Z,95.65
2019-01-16T00:05:13.919Z,95.84
2019-01-16T00:06:13.893Z,95.75
2019-01-16T00:07:13.881Z,96.31
2019-01-16T00:08:13.868Z,96.22
2019-01-16T00:09:13.858Z,96.03
2019-01-16T00:10:14.091Z,96.22
2019-01-16T00:11:13.831Z,96.31
2019-01-16T00:12:13.820Z,96.6
2019-01-16T00:13:13.808Z,96.12
2019-01-16T00:14:13.795Z,96.41
2019-01-16T00:15:13.783Z,96.89
2019-01-16T00:16:13.770Z,96.41
2019-01-16T00:17:13.761Z,96.6
2019-01-16T00:18:19.624Z,96.89
2019-01-16T00:19:13.736Z,96.79
2019-01-16T00:20:13.724Z,96.79
2019-01-16T00:21:13.713Z,96.69
2019-01-16T00:22:13.705Z,96.69
2019-01-16T00:23:13.687Z,96.98
2019-01-16T00:24:13.680Z,96.79
2019-01-16T00:25:13.663Z,96.79
2019-01-16T00:26:13.651Z,96.98
2019-01-16T00:27:13.643Z,96.79
2019-01-16T00:28:13.627Z,96.69
2019-01-16T00:29:13.616Z,96.6
2019-01-16T00:30:13.604Z,96.79
2019-01-16T00:31:13.592Z,96.6
2019-01-16T00:32:13.581Z,96.6
2019-01-16T00:33:13.569Z,97.17
2019-01-16T00:34:13.555Z,96.6
2019-01-16T00:35:13.543Z,96.6
2019-01-16T00:36:13.532Z,97.36
2019-01-16T00:37:13.523Z,96.79
2019-01-16T00:38:13.508Z,96.79
2019-01-16T00:39:13.499Z,96.89
2019-01-16T00:40:13.484Z,96.98
2019-01-16T00:41:13.722Z,97.17
2019-01-16T00:42:13.465Z,97.08
2019-01-16T00:43:13.449Z,97.27
2019-01-16T00:44:13.439Z,97.27
2019-01-16T00:45:13.424Z,97.36
2019-01-16T00:46:13.413Z,96.98
2019-01-16T00:47:13.402Z,97.17
2019-01-16T00:48:13.389Z,97.45
2019-01-16T00:49:13.377Z,97.36
2019-01-16T00:50:13.366Z,97.36
2019-01-16T00:51:13.353Z,97.64
2019-01-16T00:52:13.341Z,97.27
2019-01-16T00:53:13.328Z,97.55
2019-01-16T00:54:13.334Z,97.55
2019-01-16T00:55:13.306Z,97.74
2019-01-16T00:56:13.292Z,97.64
2019-01-16T00:57:13.280Z,97.74
2019-01-16T00:58:13.269Z,97.74
2019-01-16T00:59:13.297Z,97.83
2019-01-16T01:00:13.250Z,97.55
2019-01-16T01:01:13.236Z,97.74
2019-01-16T01:02:13.232Z,97.83
2019-01-16T01:03:13.210Z,97.83
2019-01-16T01:04:13.200Z,97.83
2019-01-16T01:05:13.189Z,97.83
2019-01-16T01:06:13.175Z,98.22
2019-01-16T01:07:13.164Z,98.12
2019-01-16T01:08:13.150Z,98.5
2019-01-16T01:09:13.148Z,98.31
2019-01-16T01:10:13.128Z,98.12
2019-01-16T01:11:13.117Z,98.31
2019-01-16T01:12:13.103Z,98.31
2019-01-16T01:13:13.153Z,98.31
2019-01-16T01:14:13.083Z,98.69
2019-01-16T01:15:13.067Z,98.22
2019-01-16T01:16:13.057Z,98.31
2019-01-16T01:17:13.045Z,98.97
2019-01-16T01:18:13.034Z,98.31
2019-01-16T01:19:13.023Z,98.31
2019-01-16T01:20:13.009Z,98.6
2019-01-16T01:21:13.002Z,99.07
2019-01-16T01:22:12.989Z,98.22
2019-01-16T01:23:12.975Z,98.6
2019-01-16T01:24:12.967Z,98.41
2019-01-16T01:25:12.957Z,98.5
2019-01-16T01:26:12.948Z,98.6
2019-01-16T01:27:12.926Z,99.16
2019-01-16T01:28:12.916Z,99.26
2019-01-16T01:29:12.904Z,98.69
2019-01-16T01:30:12.893Z,99.16
2019-01-16T01:31:12.879Z,98.6
2019-01-16T01:32:12.866Z,98.79
2019-01-16T01:33:12.856Z,98.88
2019-01-16T01:34:12.846Z,99.07
2019-01-16T01:35:12.837Z,98.31
2019-01-16T01:36:12.822Z,98.97
2019-01-16T01:37:12.810Z,99.07
2019-01-16T01:38:12.797Z,99.26
2019-01-16T01:39:12.786Z,99.07
2019-01-16T01:40:12.772Z,98.41
2019-01-16T01:41:12.763Z,99.07
2019-01-16T01:42:12.751Z,99.22
2019-01-16T01:43:12.739Z,99.07
2019-01-16T01:44:12.727Z,99.16
2019-01-16T01:45:12.719Z,99.07
2019-01-16T01:46:12.705Z,99.16
2019-01-16T01:47:12.699Z,99.26
2019-01-16T01:48:12.680Z,99.07
2019-01-16T01:49:12.671Z,99.26
2019-01-16T01:50:12.659Z,98.31
2019-01-16T01:51:14.302Z,99.31
2019-01-16T01:52:12.636Z,99.12
2019-01-16T01:53:12.628Z,98.88
2019-01-16T01:54:12.613Z,99.26
2019-01-16T01:55:12.601Z,99.07
2019-01-16T01:56:12.588Z,98.88
2019-01-16T01:57:12.583Z,99.31
2019-01-16T01:58:12.566Z,99.16
2019-01-16T01:59:12.554Z,99.12
2019-01-16T02:00:14.304Z,99.12
2019-01-16T02:01:12.531Z,99.22
2019-01-16T02:02:12.518Z,99.02
2019-01-16T02:03:12.515Z,99.02
2019-01-16T02:04:12.497Z,98.69
2019-01-16T02:05:12.484Z,98.55
2019-01-16T02:06:12.473Z,99.12
2019-01-16T02:07:12.462Z,99.16
2019-01-16T02:08:12.452Z,99.02
2019-01-16T02:09:12.437Z,98.93
2019-01-16T02:10:12.426Z,99.41
2019-01-16T02:11:12.415Z,98.74
2019-01-16T02:12:12.417Z,99.22
2019-01-16T02:13:12.391Z,99.12
2019-01-16T02:14:12.379Z,99.22
2019-01-16T02:15:12.376Z,98.93
2019-01-16T02:16:12.357Z,99.31
2019-01-16T02:17:12.345Z,99.02
2019-01-16T02:18:12.345Z,99.02
2019-01-16T02:19:12.325Z,99.22
2019-01-16T02:20:12.309Z,99.22
2019-01-16T02:21:12.299Z,98.93
2019-01-16T02:22:12.285Z,99.12
2019-01-16T02:23:12.279Z,98.83
2019-01-16T02:24:12.268Z,99.02
2019-01-16T02:25:12.255Z,99.02
2019-01-16T02:26:12.240Z,99.02
2019-01-16T02:27:12.227Z,99.22
2019-01-16T02:28:11.987Z,99.31
2019-01-16T02:29:12.206Z,99.41
2019-01-16T02:30:12.206Z,99.02
2019-01-16T02:31:12.190Z,98.93
2019-01-16T02:32:12.179Z,98.83
2019-01-16T02:33:12.171Z,99.02
2019-01-16T02:34:12.148Z,99.5
2019-01-16T02:35:12.144Z,99.22
2019-01-16T02:36:12.128Z,98.83
2019-01-16T02:37:12.114Z,98.74
2019-01-16T02:38:12.101Z,99.5
2019-01-16T02:39:12.107Z,98.93
2019-01-16T02:40:12.081Z,99.31
2019-01-16T02:41:12.077Z,98.93
2019-01-16T02:42:12.060Z,98.93
2019-01-16T02:43:12.058Z,99.31
2019-01-16T02:44:12.037Z,99.22
2019-01-16T02:45:12.028Z,99.02
2019-01-16T02:46:12.260Z,99.22
2019-01-16T02:47:11.998Z,99.12
2019-01-16T02:48:11.988Z,99.02
2019-01-16T02:49:11.976Z,99.02
2019-01-16T02:50:11.969Z,99.69
2019-01-16T02:51:12.043Z,99.5
2019-01-16T02:52:11.945Z,99.31
2019-01-16T02:53:11.932Z,99.6
2019-01-16T02:54:11.920Z,99.12
2019-01-16T02:55:11.909Z,98.65
2019-01-16T02:56:11.900Z,99.22
2019-01-16T02:57:11.896Z,99.12
2019-01-16T02:58:11.875Z,99.79
2019-01-16T02:59:11.864Z,99.5
2019-01-16T03:00:11.859Z,99.41
2019-01-16T03:01:11.842Z,99.41
2019-01-16T03:02:11.846Z,99.22
2019-01-16T03:03:11.828Z,99.88
2019-01-16T03:04:11.811Z,98.83
2019-01-16T03:05:11.796Z,99.41
2019-01-16T03:06:11.783Z,99.5
2019-01-16T03:07:11.780Z,99.88
2019-01-16T03:08:11.759Z,99.88
2019-01-16T03:09:11.748Z,99.88
2019-01-16T03:10:11.743Z,99.41
2019-01-16T03:11:11.726Z,99.79
2019-01-16T03:12:11.733Z,99.79
2019-01-16T03:13:11.702Z,99.6
2019-01-16T03:14:11.692Z,99.99
2019-01-16T03:15:11.682Z,99.99
2019-01-16T03:16:11.683Z,99.99
2019-01-16T03:17:11.908Z,99.99
2019-01-16T03:18:11.645Z,99.99
2019-01-16T03:19:11.635Z,99.99
2019-01-16T03:20:11.625Z,99.99
2019-01-16T03:21:11.680Z,99.98
2019-01-16T03:22:11.605Z,99.69
2019-01-16T03:23:11.590Z,99.69
2019-01-16T03:24:11.580Z,99.99
2019-01-16T03:25:11.566Z,99.99
2019-01-16T03:26:11.552Z,99.99
2019-01-16T03:27:11.550Z,99.99
2019-01-16T03:28:11.538Z,99.99
2019-01-16T03:29:11.519Z,99.99
2019-01-16T03:30:11.533Z,99.99
2019-01-16T03:31:11.503Z,99.99
2019-01-16T03:32:11.497Z,99.69
2019-01-16T03:33:11.488Z,99.69
2019-01-16T03:34:11.463Z,99.99
2019-01-16T03:35:11.454Z,99.88
2019-01-16T03:36:11.440Z,99.99
2019-01-16T03:37:11.427Z,99.99
2019-01-16T03:38:11.419Z,99.99
2019-01-16T03:39:11.404Z,99.99
2019-01-16T03:40:11.394Z,99.99
2019-01-16T03:41:11.381Z,99.99
2019-01-16T03:42:11.369Z,99.99
2019-01-16T03:43:11.358Z,99.88
2019-01-16T03:44:11.346Z,99.99
2019-01-16T03:45:11.334Z,99.99
2019-01-16T03:46:11.329Z,99.99
2019-01-16T03:47:11.314Z,99.99
2019-01-16T03:48:11.298Z,99.99
2019-01-16T03:49:16.334Z,99.99
2019-01-16T03:50:11.279Z,99.99
2019-01-16T03:51:11.269Z,99.99
2019-01-16T03:52:11.256Z,99.99
2019-01-16T03:53:11.243Z,99.99
2019-01-16T03:54:11.233Z,99.99
2019-01-16T03:55:11.225Z,99.99
2019-01-16T03:56:11.218Z,99.99
2019-01-16T03:57:10.961Z,99.99
2019-01-16T03:58:11.190Z,99.99
2019-01-16T03:59:11.172Z,99.99
2019-01-16T04:00:11.163Z,99.99
2019-01-16T04:01:11.150Z,99.99
2019-01-16T04:02:11.140Z,99.99
2019-01-16T04:03:11.125Z,99.99
2019-01-16T04:04:11.116Z,99.99
2019-01-16T04:05:11.108Z,99.99
2019-01-16T04:06:11.094Z,99.99
2019-01-16T04:07:11.079Z,99.99
2019-01-16T04:08:11.073Z,99.99
2019-01-16T04:09:11.058Z,99.99
2019-01-16T04:10:11.047Z,99.99
2019-01-16T04:11:11.035Z,99.99
2019-01-16T04:12:11.034Z,99.99
2019-01-16T04:13:11.011Z,99.99
2019-01-16T04:14:10.999Z,99.99
2019-01-16T04:15:10.989Z,99.99
2019-01-16T04:16:10.977Z,99.93
2019-01-16T04:17:10.965Z,99.99
2019-01-16T04:18:10.952Z,99.99
2019-01-16T04:19:10.940Z,99.99
2019-01-16T04:20:10.937Z,99.99
2019-01-16T04:21:10.916Z,99.99
2019-01-16T04:22:10.908Z,99.99
2019-01-16T04:23:10.893Z,99.99
2019-01-16T04:24:10.889Z,99.99
2019-01-16T04:25:10.874Z,99.99
2019-01-16T04:26:10.859Z,99.99
2019-01-16T04:27:10.846Z,99.99
2019-01-16T04:28:10.834Z,99.99
2019-01-16T04:29:10.824Z,99.84
2019-01-16T04:30:10.811Z,99.93
2019-01-16T04:31:10.802Z,99.93
2019-01-16T04:32:10.792Z,99.99
2019-01-16T04:33:10.776Z,99.74
2019-01-16T04:34:10.763Z,99.64
2019-01-16T04:35:10.756Z,99.84
2019-01-16T04:36:10.741Z,99.74
2019-01-16T04:37:10.730Z,99.45
2019-01-16T04:38:10.719Z,99.74
2019-01-16T04:39:10.710Z,99.74
2019-01-16T04:40:10.693Z,99.74
2019-01-16T04:41:10.683Z,99.45
2019-01-16T04:42:10.708Z,99.36
2019-01-16T04:43:10.660Z,99.36
2019-01-16T04:44:12.298Z,99.36
2019-01-16T04:45:10.635Z,99.26
2019-01-16T04:46:10.625Z,99.84
2019-01-16T04:47:10.612Z,99.45
2019-01-16T04:48:10.604Z,99.45
2019-01-16T04:49:10.597Z,99.55
2019-01-16T04:50:10.633Z,99.64
2019-01-16T04:51:10.563Z,99.26
2019-01-16T04:52:10.552Z,99.45
2019-01-16T04:53:10.549Z,99.26
2019-01-16T04:54:10.529Z,99.36
2019-01-16T04:55:10.516Z,99.74
2019-01-16T04:56:10.508Z,99.36
2019-01-16T04:57:10.494Z,99.26
2019-01-16T04:58:10.511Z,99.36
2019-01-16T04:59:10.469Z,99.74
2019-01-16T05:00:10.458Z,99.74
2019-01-16T05:01:10.452Z,99.64
2019-01-16T05:02:10.435Z,99.74
2019-01-16T05:03:10.425Z,99.74
2019-01-16T05:04:10.409Z,99.84
2019-01-16T05:05:10.399Z,99.64
2019-01-16T05:06:10.148Z,99.84
2019-01-16T05:07:10.375Z,99.74
2019-01-16T05:08:10.364Z,99.99
2019-01-16T05:09:10.116Z,99.55
2019-01-16T05:10:10.341Z,99.84
2019-01-16T05:11:10.327Z,99.84
2019-01-16T05:12:10.316Z,99.64
2019-01-16T05:13:10.307Z,99.45
2019-01-16T05:14:10.297Z,99.64
2019-01-16T05:15:10.279Z,99.93
2019-01-16T05:16:10.268Z,99.55
2019-01-16T05:17:10.257Z,99.64
2019-01-16T05:18:10.244Z,99.55
2019-01-16T05:19:10.236Z,99.16
2019-01-16T05:20:10.230Z,99.64
2019-01-16T05:21:10.210Z,99.36
2019-01-16T05:22:10.449Z,99.55
2019-01-16T05:23:10.188Z,99.64
2019-01-16T05:24:10.177Z,99.99
2019-01-16T05:25:10.169Z,99.55
2019-01-16T05:26:10.161Z,99.36
2019-01-16T05:27:10.139Z,99.55
2019-01-16T05:28:10.126Z,99.26
2019-01-16T05:29:10.116Z,99.55
2019-01-16T05:30:10.102Z,99.26
2019-01-16T05:31:10.108Z,99.45
2019-01-16T05:32:10.082Z,99.36
2019-01-16T05:33:10.068Z,99.16
2019-01-16T05:34:10.059Z,99.45
2019-01-16T05:35:10.045Z,99.45
2019-01-16T05:36:10.035Z,99.45
2019-01-16T05:37:10.026Z,99.45
2019-01-16T05:38:10.012Z,99.55
2019-01-16T05:39:10.001Z,99.45
2019-01-16T05:40:09.985Z,99.45
2019-01-16T05:41:09.983Z,99.45
2019-01-16T05:42:09.963Z,99.64
2019-01-16T05:43:09.953Z,99.45
2019-01-16T05:44:09.948Z,99.55
2019-01-16T05:45:09.926Z,99.55
2019-01-16T05:46:09.918Z,99.55
2019-01-16T05:47:09.903Z,99.45
2019-01-16T05:48:09.956Z,99.16
2019-01-16T05:49:09.879Z,99.45
2019-01-16T05:50:09.875Z,99.55
2019-01-16T05:51:09.855Z,99.36
2019-01-16T05:52:09.844Z,99.16
2019-01-16T05:53:10.083Z,99.16
2019-01-16T05:54:09.820Z,99.07
2019-01-16T05:55:09.809Z,99.16
2019-01-16T05:56:09.797Z,98.97
2019-01-16T05:57:09.785Z,98.97
2019-01-16T05:58:09.776Z,98.97
2019-01-16T05:59:09.763Z,99.64
2019-01-16T06:00:09.752Z,99.84
2019-01-16T06:01:09.741Z,99.16
2019-01-16T06:02:09.738Z,99.26
2019-01-16T06:03:09.715Z,99.07
2019-01-16T06:04:09.705Z,99.07
2019-01-16T06:05:09.702Z,99.07
2019-01-16T06:06:09.690Z,99.45
2019-01-16T06:07:09.672Z,99.07
2019-01-16T06:08:09.663Z,99.26
2019-01-16T06:09:09.649Z,99.16
2019-01-16T06:10:09.640Z,99.26
2019-01-16T06:11:09.625Z,98.88
2019-01-16T06:12:09.612Z,99.16
2019-01-16T06:13:09.606Z,99.16
2019-01-16T06:14:09.590Z,99.26
2019-01-16T06:15:09.575Z,99.07
2019-01-16T06:16:09.566Z,99.26
2019-01-16T06:17:09.549Z,99.36
2019-01-16T06:18:09.539Z,99.45
2019-01-16T06:19:09.527Z,99.64
2019-01-16T06:20:09.515Z,98.97
2019-01-16T06:21:09.504Z,99.07
2019-01-16T06:22:09.492Z,99.36
2019-01-16T06:23:09.481Z,99.36
2019-01-16T06:24:09.783Z,99.26
2019-01-16T06:25:09.462Z,99.64
2019-01-16T06:26:09.445Z,98.88
2019-01-16T06:27:09.435Z,99.26
2019-01-16T06:28:09.422Z,99.16
2019-01-16T06:29:09.409Z,99.07
2019-01-16T06:30:09.399Z,99.16
2019-01-16T06:31:09.387Z,99.26
2019-01-16T06:32:09.374Z,98.6
2019-01-16T06:33:09.363Z,99.26
2019-01-16T06:34:09.354Z,99.26
2019-01-16T06:35:09.339Z,99.16
2019-01-16T06:36:09.328Z,99.26
2019-01-16T06:37:09.320Z,98.88
2019-01-16T06:38:09.307Z,99.16
2019-01-16T06:39:09.293Z,99.36
2019-01-16T06:40:09.281Z,99.07
2019-01-16T06:41:09.269Z,99.07
2019-01-16T06:42:09.261Z,98.97
2019-01-16T06:43:09.244Z,98.88
2019-01-16T06:44:09.234Z,99.07
2019-01-16T06:45:09.224Z,98.5
2019-01-16T06:46:09.210Z,98.88
2019-01-16T06:47:09.199Z,98.69
2019-01-16T06:48:09.187Z,99.12
2019-01-16T06:49:09.175Z,99.07
2019-01-16T06:50:16.291Z,99.07
2019-01-16T06:51:09.153Z,98.88
2019-01-16T06:52:09.141Z,99.07
2019-01-16T06:53:09.133Z,99.12
2019-01-16T06:54:09.118Z,98.79
2019-01-16T06:55:09.105Z,98.65
2019-01-16T06:56:09.345Z,99.07
2019-01-16T06:57:09.082Z,98.27
2019-01-16T06:58:09.069Z,98.22
2019-01-16T06:59:09.058Z,98.5
2019-01-16T07:00:09.047Z,98.79
2019-01-16T07:01:09.036Z,98.31
2019-01-16T07:02:09.027Z,98.69
2019-01-16T07:03:08.770Z,98.5
2019-01-16T07:04:09.003Z,98.88
2019-01-16T07:05:08.994Z,98.88
2019-01-16T07:06:08.977Z,99.07
2019-01-16T07:07:08.720Z,99.07
2019-01-16T07:08:08.954Z,99.45
2019-01-16T07:09:08.941Z,99.07
2019-01-16T07:10:08.932Z,99.26
2019-01-16T07:11:08.917Z,99.26
2019-01-16T07:12:08.905Z,99.16
2019-01-16T07:13:08.893Z,99.07
2019-01-16T07:14:08.884Z,99.26
2019-01-16T07:15:08.871Z,99.45
2019-01-16T07:16:08.874Z,98.97
2019-01-16T07:17:08.846Z,99.74
2019-01-16T07:18:08.836Z,99.07
2019-01-16T07:19:08.826Z,99.64
2019-01-16T07:20:12.423Z,99.26
2019-01-16T07:21:08.801Z,99.36
2019-01-16T07:22:08.787Z,99.45
2019-01-16T07:23:08.777Z,99.07
2019-01-16T07:24:08.766Z,98.22
2019-01-16T07:25:08.752Z,98.6
2019-01-16T07:26:08.748Z,98.97
2019-01-16T07:27:08.730Z,98.5
2019-01-16T07:28:08.719Z,99.16
2019-01-16T07:29:08.707Z,98.88
2019-01-16T07:30:08.693Z,98.6
2019-01-16T07:31:08.683Z,99.64
2019-01-16T07:32:08.672Z,98.97
2019-01-16T07:33:08.662Z,99.64
2019-01-16T07:34:08.647Z,99.64
2019-01-16T07:35:08.635Z,99.45
2019-01-16T07:36:08.624Z,99.55
2019-01-16T07:37:08.613Z,99.36
2019-01-16T07:38:08.602Z,98.88
2019-01-16T07:39:08.592Z,99.16
2019-01-16T07:40:08.583Z,98.88
2019-01-16T07:41:08.567Z,99.07
2019-01-16T07:42:08.553Z,99.55
2019-01-16T07:43:08.545Z,98.88
2019-01-16T07:44:08.532Z,98.93
2019-01-16T07:45:08.518Z,98.69
2019-01-16T07:46:08.510Z,98.12
2019-01-16T07:47:08.504Z,98.41
2019-01-16T07:48:08.486Z,98.31
2019-01-16T07:49:08.475Z,98.6
2019-01-16T07:50:08.462Z,98.41
2019-01-16T07:51:08.453Z,98.88
2019-01-16T07:52:08.438Z,98.41
2019-01-16T07:53:08.430Z,98.03
2019-01-16T07:54:08.418Z,97.93
2019-01-16T07:55:08.405Z,98.5
2019-01-16T07:56:08.391Z,98.41
2019-01-16T07:57:08.381Z,98.31
2019-01-16T07:58:08.621Z,98.17
2019-01-16T07:59:08.361Z,98.17
2019-01-16T08:00:08.347Z,98.69
2019-01-16T08:01:08.334Z,98.83
2019-01-16T08:02:08.325Z,98.83
2019-01-16T08:03:08.373Z,98.83
2019-01-16T08:04:08.298Z,99.5
2019-01-16T08:05:08.288Z,99.6
2019-01-16T08:06:08.281Z,99.69
2019-01-16T08:07:08.272Z,99.5
2019-01-16T08:08:08.251Z,99.5
2019-01-16T08:09:08.244Z,99.5
2019-01-16T08:10:08.231Z,99.02
2019-01-16T08:11:08.220Z,99.12
2019-01-16T08:12:08.207Z,98.93
2019-01-16T08:13:08.199Z,98.83
2019-01-16T08:14:08.184Z,98.83
2019-01-16T08:15:08.173Z,99.12
2019-01-16T08:16:08.226Z,99.22
2019-01-16T08:17:08.150Z,98.83
2019-01-16T08:18:08.139Z,98.93
2019-01-16T08:19:08.127Z,98.41
2019-01-16T08:20:08.151Z,98.08
2019-01-16T08:21:08.111Z,98.36
2019-01-16T08:22:08.094Z,98.46
2019-01-16T08:23:08.085Z,99.12
2019-01-16T08:24:08.072Z,99.02
2019-01-16T08:25:08.059Z,99.12
2019-01-16T08:26:08.045Z,98.93
2019-01-16T08:27:08.035Z,99.22
2019-01-16T08:28:08.023Z,99.12
2019-01-16T08:29:08.033Z,99.02
2019-01-16T08:30:08.039Z,98.55
2019-01-16T08:31:07.991Z,98.55
2019-01-16T08:32:07.980Z,99.31
2019-01-16T08:33:07.966Z,98.46
2019-01-16T08:34:07.956Z,98.36
2019-01-16T08:35:07.945Z,98.65
2019-01-16T08:36:07.936Z,98.36
2019-01-16T08:37:07.923Z,98.27
2019-01-16T08:38:07.910Z,98.74
2019-01-16T08:39:07.965Z,98.74
2019-01-16T08:40:07.891Z,98.27
2019-01-16T08:41:07.875Z,98.55
2019-01-16T08:42:07.866Z,98.27
2019-01-16T08:43:07.859Z,98.55
2019-01-16T08:44:13.563Z,98.08
2019-01-16T08:45:07.830Z,98.27
2019-01-16T08:46:07.825Z,98.17
2019-01-16T08:47:07.807Z,98.55
2019-01-16T08:48:07.795Z,98.46
2019-01-16T08:49:07.786Z,98.46
2019-01-16T08:50:07.778Z,98.93
2019-01-16T08:51:07.846Z,98.93
2019-01-16T08:52:07.756Z,99.12
2019-01-16T08:53:07.741Z,99.12
2019-01-16T08:54:07.798Z,99.31
2019-01-16T08:55:07.720Z,98.46
2019-01-16T08:56:07.709Z,98.08
2019-01-16T08:57:07.701Z,98.55
2019-01-16T08:58:07.684Z,98.17
2019-01-16T08:59:07.671Z,98.36
2019-01-16T09:00:07.662Z,98.55
2019-01-16T09:01:07.651Z,98.17
2019-01-16T09:02:07.637Z,97.98
2019-01-16T09:03:07.628Z,97.79
2019-01-16T09:04:07.615Z,98.46
2019-01-16T09:05:07.605Z,98.17
2019-01-16T09:06:07.594Z,98.55
2019-01-16T09:07:07.582Z,98.08
2019-01-16T09:08:07.571Z,97.98
2019-01-16T09:09:07.560Z,98.17
2019-01-16T09:10:07.567Z,97.88
2019-01-16T09:11:07.536Z,97.98
2019-01-16T09:12:07.529Z,98.08
2019-01-16T09:13:07.514Z,97.79
2019-01-16T09:14:07.504Z,98.27
2019-01-16T09:15:07.492Z,98.55
2019-01-16T09:16:07.481Z,97.79
2019-01-16T09:17:07.473Z,98.17
2019-01-16T09:18:07.461Z,98.36
2019-01-16T09:19:07.453Z,98.65
2019-01-16T09:20:07.440Z,98.27
2019-01-16T09:21:07.431Z,98.65
2019-01-16T09:22:07.414Z,98.27
2019-01-16T09:23:07.404Z,98.65
2019-01-16T09:24:07.395Z,97.98
2019-01-16T09:25:07.383Z,98.17
2019-01-16T09:26:07.370Z,98.83
2019-01-16T09:27:07.357Z,98.83
2019-01-16T09:28:07.349Z,98.65
2019-01-16T09:29:07.335Z,98.08
2019-01-16T09:30:07.328Z,98.27
2019-01-16T09:31:07.312Z,98.08
2019-01-16T09:32:07.303Z,98.93
2019-01-16T09:33:07.291Z,98.36
2019-01-16T09:34:07.279Z,98.46
2019-01-16T09:35:07.268Z,98.55
2019-01-16T09:36:07.262Z,98.36
2019-01-16T09:37:07.247Z,98.36
2019-01-16T09:38:07.236Z,98.36
2019-01-16T09:39:07.224Z,98.13
2019-01-16T09:40:07.219Z,98.36
2019-01-16T09:41:07.247Z,98.46
2019-01-16T09:42:07.189Z,98.17
2019-01-16T09:43:07.181Z,98.27
2019-01-16T09:44:07.170Z,98.36
2019-01-16T09:45:07.158Z,98.65
2019-01-16T09:46:07.148Z,98.17
2019-01-16T09:47:07.134Z,98.27
2019-01-16T09:48:07.125Z,98.74
2019-01-16T09:49:07.113Z,98.83
2019-01-16T09:50:07.101Z,98.55
2019-01-16T09:51:07.091Z,98.17
2019-01-16T09:52:07.082Z,97.88
2019-01-16T09:53:07.072Z,98.46
2019-01-16T09:54:07.059Z,98.55
2019-01-16T09:55:07.049Z,98.46
2019-01-16T09:56:07.052Z,99.41
2019-01-16T09:57:07.024Z,98.36
2019-01-16T09:58:07.016Z,98.36
2019-01-16T09:59:07.003Z,98.65
2019-01-16T10:00:06.990Z,99.31
2019-01-16T10:01:06.980Z,99.22
2019-01-16T10:02:06.968Z,99.02
2019-01-16T10:03:07.209Z,99.12
2019-01-16T10:04:06.947Z,98.74
2019-01-16T10:05:06.938Z,98.36
2019-01-16T10:06:06.923Z,98.83
2019-01-16T10:07:06.912Z,98.74
2019-01-16T10:08:06.904Z,98.46
2019-01-16T10:09:06.890Z,99.02
2019-01-16T10:10:06.884Z,98.65
2019-01-16T10:11:06.869Z,98.46
2019-01-16T10:12:06.857Z,98.46
2019-01-16T10:13:06.845Z,98.74
2019-01-16T10:14:06.835Z,98.36
2019-01-16T10:15:06.824Z,98.55
2019-01-16T10:16:06.820Z,98.55
2019-01-16T10:17:06.802Z,98.55
2019-01-16T10:18:07.031Z,98.46
2019-01-16T10:19:06.778Z,98.5
2019-01-16T10:20:06.769Z,98.27
2019-01-16T10:21:06.759Z,98.03
2019-01-16T10:22:06.748Z,98.13
2019-01-16T10:23:06.736Z,97.88
2019-01-16T10:24:06.723Z,97.84
2019-01-16T10:25:06.715Z,97.88
2019-01-16T10:26:06.699Z,97.69
2019-01-16T10:27:06.690Z,97.84
2019-01-16T10:28:06.680Z,97.46
2019-01-16T10:29:06.670Z,97.55
2019-01-16T10:30:06.659Z,97.36
2019-01-16T10:31:06.646Z,97.27
2019-01-16T10:32:06.646Z,96.98
2019-01-16T10:33:06.623Z,97.08
2019-01-16T10:34:06.915Z,97.17
2019-01-16T10:35:06.603Z,96.7
2019-01-16T10:36:06.590Z,96.6
2019-01-16T10:37:06.578Z,96.89
2019-01-16T10:38:06.566Z,96.79
2019-01-16T10:39:06.558Z,96.89
2019-01-16T10:40:06.549Z,96.89
2019-01-16T10:41:06.540Z,96.51
2019-01-16T10:42:06.527Z,96.31
2019-01-16T10:43:06.516Z,96.51
2019-01-16T10:44:06.501Z,96.12
2019-01-16T10:45:06.492Z,96.41
2019-01-16T10:46:06.484Z,96.51
2019-01-16T10:47:06.475Z,96.79
2019-01-16T10:48:06.464Z,96.51
2019-01-16T10:49:06.450Z,96.41
2019-01-16T10:50:06.441Z,96.51
2019-01-16T10:51:06.427Z,96.12
2019-01-16T10:52:06.416Z,96.22
2019-01-16T10:53:06.406Z,96.12
2019-01-16T10:54:06.396Z,96.51
2019-01-16T10:55:06.387Z,96.31
2019-01-16T10:56:06.381Z,96.22
2019-01-16T10:57:06.425Z,96.31
2019-01-16T10:58:06.360Z,96.7
2019-01-16T10:59:06.350Z,96.31
2019-01-16T11:00:06.332Z,96.41
2019-01-16T11:01:06.318Z,95.94
2019-01-16T11:02:06.306Z,95.84
2019-01-16T11:03:06.298Z,96.12
2019-01-16T11:04:06.286Z,96.51
2019-01-16T11:05:06.278Z,96.31
2019-01-16T11:06:06.266Z,96.12
2019-01-16T11:07:06.255Z,96.41
2019-01-16T11:08:06.243Z,96.51
2019-01-16T11:09:06.235Z,96.6
2019-01-16T11:10:06.229Z,96.22
2019-01-16T11:11:06.801Z,96.12
2019-01-16T11:12:06.202Z,95.84
2019-01-16T11:13:06.194Z,96.12
2019-01-16T11:14:06.181Z,95.46
2019-01-16T11:15:06.169Z,95.27
2019-01-16T11:16:06.157Z,95.7
2019-01-16T11:17:06.151Z,95.12
2019-01-16T11:18:06.140Z,95.08
2019-01-16T11:19:06.125Z,95.32
2019-01-16T11:20:06.120Z,95.41
2019-01-16T11:21:13.332Z,95.41
2019-01-16T11:22:06.092Z,95.22
2019-01-16T11:23:06.085Z,95.22
2019-01-16T11:24:06.074Z,95.41
2019-01-16T11:25:06.063Z,95.12
2019-01-16T11:26:06.054Z,95.03
2019-01-16T11:27:06.048Z,94.84
2019-01-16T11:28:06.031Z,95.12
2019-01-16T11:29:06.021Z,94.65
2019-01-16T11:30:06.012Z,94.93
2019-01-16T11:31:06.004Z,94.46
2019-01-16T11:32:05.990Z,94.46
2019-01-16T11:33:05.983Z,93.98
2019-01-16T11:34:05.974Z,94.65
2019-01-16T11:35:05.963Z,94.56
2019-01-16T11:36:05.958Z,95.03
2019-01-16T11:37:06.189Z,94.65
2019-01-16T11:38:05.929Z,94.84
2019-01-16T11:39:05.919Z,95.03
2019-01-16T11:40:07.246Z,94.46
2019-01-16T11:41:05.900Z,93.89
2019-01-16T11:42:05.888Z,94.46
2019-01-16T11:43:05.881Z,94.65
2019-01-16T11:44:05.872Z,93.79
2019-01-16T11:45:05.865Z,94.37
2019-01-16T11:46:05.848Z,94.27
2019-01-16T11:47:05.868Z,93.89
2019-01-16T11:48:05.585Z,94.37
2019-01-16T11:49:05.818Z,93.7
2019-01-16T11:50:05.810Z,93.89
2019-01-16T11:51:05.797Z,94.08
2019-01-16T11:52:05.787Z,93.79
2019-01-16T11:53:05.809Z,93.89
2019-01-16T11:54:05.767Z,93.98
2019-01-16T11:55:05.769Z,93.79
2019-01-16T11:56:05.748Z,93.79
2019-01-16T11:57:05.737Z,93.79
2019-01-16T11:58:05.732Z,94.08
2019-01-16T11:59:05.717Z,94.17
2019-01-16T12:00:05.709Z,94.27
2019-01-16T12:01:05.698Z,94.08
2019-01-16T12:02:05.687Z,94.46
2019-01-16T12:03:05.677Z,94.27
2019-01-16T12:04:05.670Z,94.56
2019-01-16T12:05:05.660Z,93.79
2019-01-16T12:06:05.652Z,93.89
2019-01-16T12:07:05.639Z,93.79
2019-01-16T12:08:05.876Z,94.08
2019-01-16T12:09:05.615Z,93.89
2019-01-16T12:10:05.610Z,94.17
2019-01-16T12:11:05.597Z,93.98
2019-01-16T12:12:05.584Z,93.98
2019-01-16T12:13:05.576Z,94.17
2019-01-16T12:14:05.574Z,94.37
2019-01-16T12:15:05.555Z,94.65
2019-01-16T12:16:05.546Z,95.22
2019-01-16T12:17:05.536Z,94.93
2019-01-16T12:18:05.528Z,94.93
2019-01-16T12:19:05.517Z,94.84
2019-01-16T12:20:05.505Z,95.12
2019-01-16T12:21:05.499Z,94.84
2019-01-16T12:22:05.486Z,94.27
2019-01-16T12:23:05.475Z,94.27
2019-01-16T12:24:05.465Z,94.37
2019-01-16T12:25:05.458Z,94.74
2019-01-16T12:26:10.577Z,94.17
2019-01-16T12:27:05.437Z,94.46
2019-01-16T12:28:05.423Z,94.37
2019-01-16T12:29:05.414Z,94.65
2019-01-16T12:30:05.412Z,94.74
2019-01-16T12:31:05.474Z,94.74
2019-01-16T12:32:05.384Z,94.65
2019-01-16T12:33:05.379Z,93.98
2019-01-16T12:34:05.361Z,94.17
2019-01-16T12:35:05.353Z,94.84
2019-01-16T12:36:05.343Z,94.65
2019-01-16T12:37:05.335Z,94.65
2019-01-16T12:38:05.318Z,94.46
2019-01-16T12:39:05.311Z,94.93
2019-01-16T12:40:06.391Z,94.17
2019-01-16T12:41:05.292Z,95.03
2019-01-16T12:42:05.279Z,94.74
2019-01-16T12:43:05.270Z,94.65
2019-01-16T12:44:05.259Z,94.37
2019-01-16T12:45:05.250Z,94.74
2019-01-16T12:46:05.242Z,94.65
2019-01-16T12:47:05.229Z,94.46
2019-01-16T12:48:05.217Z,94.46
2019-01-16T12:49:06.008Z,94.17
2019-01-16T12:50:05.194Z,94.46
2019-01-16T12:51:05.186Z,94.56
2019-01-16T12:52:05.179Z,94.65
2019-01-16T12:53:05.165Z,94.46
2019-01-16T12:54:05.156Z,94.74